createdAt,value
2022-12-31T00:01:18.029Z,32.53
2022-12-31T00:04:21.858Z,33.27
2022-12-31T00:07:25.566Z,33.23
2022-12-31T00:10:29.626Z,34.27
2022-12-31T00:13:34.985Z,33.37
2022-12-31T00:16:40.783Z,32.80
2022-12-31T00:19:44.487Z,33.27
2022-12-31T00:22:48.305Z,32.07
2022-12-31T00:25:51.818Z,33.60
2022-12-31T00:28:59.255Z,32.47
2022-12-31T00:32:03.130Z,32.67
2022-12-31T00:35:07.806Z,32.67
2022-12-31T00:38:11.595Z,30.37
2022-12-31T00:41:16.394Z,29.20
2022-12-31T00:44:21.909Z,27.00
2022-12-31T00:47:26.687Z,26.00
2022-12-31T00:50:30.421Z,26.17
2022-12-31T00:53:34.588Z,27.90
2022-12-31T00:56:38.490Z,26.97
2022-12-31T00:59:43.527Z,26.10
2022-12-31T01:02:47.453Z,25.90
2022-12-31T01:05:51.707Z,25.90
2022-12-31T01:08:56.648Z,23.93
2022-12-31T01:12:00.449Z,25.27
2022-12-31T01:15:06.523Z,23.00
2022-12-31T01:18:10.828Z,22.73
2022-12-31T01:21:15.495Z,21.63
2022-12-31T01:24:19.966Z,20.93
2022-12-31T01:27:26.761Z,22.40
2022-12-31T01:30:33.561Z,22.20
2022-12-31T01:33:37.551Z,21.10
2022-12-31T01:36:41.691Z,22.03
2022-12-31T01:39:45.271Z,21.33
2022-12-31T01:42:55.866Z,20.23
2022-12-31T01:46:01.076Z,20.47
2022-12-31T01:49:10.944Z,19.87
2022-12-31T01:52:19.912Z,19.27
2022-12-31T01:55:27.894Z,19.47
2022-12-31T01:58:38.228Z,20.10
2022-12-31T02:01:43.764Z,18.93
2022-12-31T02:04:48.726Z,19.63
2022-12-31T02:07:53.485Z,18.30
2022-12-31T02:10:57.352Z,16.77
2022-12-31T02:14:05.927Z,16.93
2022-12-31T02:17:18.472Z,16.63
2022-12-31T02:20:47.900Z,16.90
2022-12-31T02:24:14.566Z,17.50
2022-12-31T02:27:32.972Z,16.67
2022-12-31T02:30:39.918Z,17.77
2022-12-31T02:33:52.526Z,17.40
2022-12-31T02:36:59.840Z,18.27
2022-12-31T02:40:04.051Z,18.23
2022-12-31T02:43:07.928Z,17.97
2022-12-31T02:46:22.568Z,17.53
2022-12-31T02:49:35.842Z,20.77
2022-12-31T02:52:48.507Z,18.83
2022-12-31T02:55:57.469Z,20.47
2022-12-31T02:59:22.638Z,17.93
2022-12-31T03:02:31.622Z,18.50
2022-12-31T03:05:39.152Z,19.33
2022-12-31T03:08:57.772Z,19.43
2022-12-31T03:12:19.473Z,18.47
2022-12-31T03:15:25.445Z,18.93
2022-12-31T03:18:57.319Z,19.10
2022-12-31T03:22:18.478Z,19.33
2022-12-31T03:25:38.302Z,21.83
2022-12-31T03:28:48.060Z,21.83
2022-12-31T03:31:52.366Z,21.13
2022-12-31T03:34:57.503Z,20.30
2022-12-31T03:38:01.114Z,21.07
2022-12-31T03:41:04.990Z,20.53
2022-12-31T03:44:08.627Z,20.27
2022-12-31T03:47:12.312Z,20.23
2022-12-31T03:50:19.606Z,18.83
2022-12-31T03:53:23.266Z,18.67
2022-12-31T03:56:26.884Z,19.43
2022-12-31T03:59:30.580Z,20.87
2022-12-31T04:02:34.519Z,20.03
2022-12-31T04:05:39.638Z,19.03
2022-12-31T04:08:43.373Z,18.87
2022-12-31T04:11:47.129Z,19.53
2022-12-31T04:14:50.697Z,18.83
2022-12-31T04:17:54.237Z,18.33
2022-12-31T04:21:03.443Z,23.43
2022-12-31T04:24:07.768Z,23.00
2022-12-31T04:27:11.479Z,20.00
2022-12-31T04:30:15.901Z,44.27
2022-12-31T04:33:19.580Z,43.60
2022-12-31T04:36:24.636Z,41.23
2022-12-31T04:39:28.804Z,48.50
2022-12-31T04:42:32.402Z,32.33
2022-12-31T04:45:35.974Z,26.50
2022-12-31T04:48:39.489Z,21.50
2022-12-31T04:51:44.717Z,20.40
2022-12-31T04:54:48.255Z,19.80
2022-12-31T04:57:51.978Z,19.83
2022-12-31T05:00:56.768Z,18.30
2022-12-31T05:04:00.589Z,71.03
2022-12-31T05:07:05.690Z,30.33
2022-12-31T05:10:09.868Z,39.40
2022-12-31T05:13:16.172Z,26.20
2022-12-31T05:16:19.910Z,23.67
2022-12-31T05:19:23.667Z,24.10
2022-12-31T05:22:31.361Z,20.20
2022-12-31T05:25:35.643Z,25.07
2022-12-31T05:28:39.267Z,22.43
2022-12-31T05:31:42.895Z,22.03
2022-12-31T05:34:46.634Z,22.23
2022-12-31T05:37:51.720Z,21.60
2022-12-31T05:41:01.419Z,24.40
2022-12-31T05:44:05.165Z,23.97
2022-12-31T05:47:08.836Z,23.70
2022-12-31T05:50:15.653Z,24.43
2022-12-31T05:53:20.657Z,23.20
2022-12-31T05:56:24.351Z,23.73
2022-12-31T05:59:27.972Z,25.27
2022-12-31T06:02:31.611Z,23.17
2022-12-31T06:05:35.217Z,22.50
2022-12-31T06:08:40.830Z,22.70
2022-12-31T06:11:44.425Z,24.13
2022-12-31T06:14:48.163Z,23.80
2022-12-31T06:17:51.814Z,21.67
2022-12-31T06:20:59.722Z,23.50
2022-12-31T06:24:04.986Z,23.10
2022-12-31T06:27:08.623Z,23.00
2022-12-31T06:30:13.538Z,22.30
2022-12-31T06:33:17.287Z,23.20
2022-12-31T06:36:22.155Z,23.17
2022-12-31T06:39:27.716Z,23.97
2022-12-31T06:42:32.183Z,22.53
2022-12-31T06:45:35.779Z,24.83
2022-12-31T06:48:42.179Z,24.10
2022-12-31T06:51:48.156Z,28.40
2022-12-31T06:54:53.790Z,26.93
2022-12-31T06:57:58.228Z,26.13
2022-12-31T07:01:14.425Z,26.77
2022-12-31T07:04:49.858Z,26.27
2022-12-31T07:08:04.258Z,26.73
2022-12-31T07:11:15.698Z,26.90
2022-12-31T07:14:30.496Z,27.53
2022-12-31T07:17:46.320Z,26.10
2022-12-31T07:20:50.649Z,26.80
2022-12-31T07:23:55.014Z,26.27
2022-12-31T07:27:14.368Z,28.80
2022-12-31T07:30:22.146Z,29.60
2022-12-31T07:33:37.877Z,27.50
2022-12-31T07:37:02.967Z,30.30
2022-12-31T07:40:18.456Z,29.03
2022-12-31T07:43:31.999Z,33.83
2022-12-31T07:46:41.592Z,31.47
2022-12-31T07:49:46.136Z,30.33
2022-12-31T07:52:50.688Z,37.77
2022-12-31T07:55:58.156Z,37.40
2022-12-31T07:59:24.278Z,45.77
2022-12-31T08:02:48.427Z,40.53
2022-12-31T08:06:01.036Z,36.13
2022-12-31T08:09:13.410Z,34.03
2022-12-31T08:12:17.462Z,32.47
2022-12-31T08:15:30.028Z,34.63
2022-12-31T08:18:34.752Z,39.33
2022-12-31T08:21:48.007Z,39.20
2022-12-31T08:25:05.744Z,37.73
2022-12-31T08:28:20.226Z,36.47
2022-12-31T08:31:35.299Z,31.63
2022-12-31T08:34:49.739Z,31.47
2022-12-31T08:38:02.107Z,30.93
2022-12-31T08:41:15.325Z,30.33
2022-12-31T08:44:29.968Z,29.47
2022-12-31T08:47:47.367Z,30.40
2022-12-31T08:50:51.589Z,53.33
2022-12-31T08:53:56.586Z,32.20
2022-12-31T08:57:14.845Z,43.60
2022-12-31T09:00:21.503Z,52.90
2022-12-31T09:03:36.376Z,35.80
2022-12-31T09:06:48.288Z,37.90
2022-12-31T09:10:04.798Z,33.57
2022-12-31T09:13:17.106Z,31.57
2022-12-31T09:16:29.133Z,31.73
2022-12-31T09:19:34.289Z,32.13
2022-12-31T09:22:38.349Z,30.17
2022-12-31T09:25:48.594Z,28.83
2022-12-31T09:29:00.117Z,33.77
2022-12-31T09:32:15.795Z,30.03
2022-12-31T09:35:32.322Z,30.30
2022-12-31T09:38:43.368Z,46.40
2022-12-31T09:42:20.868Z,47.27
2022-12-31T09:45:56.747Z,36.70
2022-12-31T09:49:46.432Z,31.73
2022-12-31T09:53:10.822Z,32.13
2022-12-31T09:56:22.398Z,29.47
2022-12-31T09:59:33.308Z,30.93
2022-12-31T10:02:54.441Z,31.70
2022-12-31T10:06:21.594Z,30.27
2022-12-31T10:09:41.091Z,31.00
2022-12-31T10:13:13.098Z,29.00
2022-12-31T10:16:51.191Z,28.77
2022-12-31T10:20:21.684Z,27.33
2022-12-31T10:23:50.108Z,29.23
2022-12-31T10:27:30.214Z,28.07
2022-12-31T10:30:36.573Z,29.93
2022-12-31T10:33:46.212Z,30.20
2022-12-31T10:36:59.825Z,30.00
2022-12-31T10:40:22.833Z,28.87
2022-12-31T10:44:02.488Z,28.87
2022-12-31T10:47:37.826Z,29.43
2022-12-31T10:51:06.587Z,29.17
2022-12-31T10:54:30.376Z,47.57
2022-12-31T10:58:04.048Z,30.73
2022-12-31T11:01:18.139Z,33.37
2022-12-31T11:04:54.125Z,34.73
2022-12-31T11:08:21.547Z,35.60
2022-12-31T11:11:39.010Z,38.37
2022-12-31T11:15:07.395Z,43.33
2022-12-31T11:18:23.128Z,47.70
2022-12-31T11:21:43.911Z,45.80
2022-12-31T11:25:20.985Z,44.17
2022-12-31T11:28:57.236Z,37.40
2022-12-31T11:32:34.099Z,35.40
2022-12-31T11:35:58.477Z,35.93
2022-12-31T11:39:31.115Z,28.90
2022-12-31T11:42:45.777Z,26.67
2022-12-31T11:46:10.921Z,33.17
2022-12-31T11:49:37.019Z,26.00
2022-12-31T11:52:56.429Z,27.00
2022-12-31T11:56:13.018Z,25.77
2022-12-31T11:59:19.590Z,25.00
2022-12-31T12:02:28.552Z,26.07
2022-12-31T12:05:33.870Z,25.87
2022-12-31T12:08:40.079Z,25.80
2022-12-31T12:11:43.918Z,23.77
2022-12-31T12:14:53.399Z,25.90
2022-12-31T12:18:00.031Z,23.67
2022-12-31T12:21:08.395Z,23.77
2022-12-31T12:24:21.794Z,23.93
2022-12-31T12:27:30.045Z,24.00
2022-12-31T12:30:41.538Z,22.90
2022-12-31T12:33:47.617Z,22.17
2022-12-31T12:36:51.538Z,23.13
2022-12-31T12:40:01.221Z,22.53
2022-12-31T12:43:05.458Z,22.50
2022-12-31T12:46:21.703Z,22.67
2022-12-31T12:49:28.550Z,22.80
2022-12-31T12:53:08.294Z,22.80
2022-12-31T12:56:30.730Z,22.53
2022-12-31T12:59:59.217Z,20.77
2022-12-31T13:03:36.224Z,21.70
2022-12-31T13:06:56.228Z,20.87
2022-12-31T13:10:18.660Z,20.77
2022-12-31T13:13:35.057Z,20.40
2022-12-31T13:16:44.800Z,20.60
2022-12-31T13:19:54.355Z,20.07
2022-12-31T13:23:03.878Z,20.70
2022-12-31T13:26:12.271Z,19.50
2022-12-31T13:29:21.118Z,25.13
2022-12-31T13:32:34.101Z,23.50
2022-12-31T13:35:46.023Z,24.97
2022-12-31T13:38:52.819Z,20.23
2022-12-31T13:42:02.744Z,22.07
2022-12-31T13:45:15.049Z,20.97
2022-12-31T13:48:26.167Z,20.03
2022-12-31T13:51:41.589Z,32.70
2022-12-31T13:54:54.385Z,101.63
2022-12-31T13:58:07.285Z,75.57
2022-12-31T14:01:17.665Z,31.67
2022-12-31T14:04:29.081Z,36.23
2022-12-31T14:07:45.413Z,20.37
2022-12-31T14:11:00.924Z,20.70
2022-12-31T14:14:17.018Z,18.30
2022-12-31T14:17:28.324Z,18.97
2022-12-31T14:20:44.224Z,19.57
2022-12-31T14:23:54.399Z,24.23
2022-12-31T14:27:01.686Z,20.33
2022-12-31T14:30:07.993Z,20.07
2022-12-31T14:33:27.737Z,21.57
2022-12-31T14:36:42.365Z,33.03
2022-12-31T14:39:54.347Z,51.43
2022-12-31T14:43:18.814Z,35.57
2022-12-31T14:46:31.405Z,37.93
2022-12-31T14:49:48.252Z,32.87
2022-12-31T14:52:54.806Z,30.07
2022-12-31T14:55:59.939Z,35.17
2022-12-31T14:59:04.371Z,35.03
2022-12-31T15:02:30.306Z,37.93
2022-12-31T15:05:37.708Z,41.60
2022-12-31T15:08:55.005Z,42.87
2022-12-31T15:12:23.608Z,45.87
2022-12-31T15:16:11.416Z,51.03
2022-12-31T15:19:52.211Z,54.43
2022-12-31T15:22:57.912Z,78.13
2022-12-31T15:26:04.380Z,106.27
2022-12-31T15:29:20.976Z,91.20
2022-12-31T15:32:33.065Z,74.57
2022-12-31T15:35:48.026Z,92.13
2022-12-31T15:39:04.699Z,63.60
2022-12-31T15:42:39.192Z,55.17
2022-12-31T15:45:46.690Z,62.90
2022-12-31T15:48:56.561Z,215.53
2022-12-31T15:52:06.278Z,109.20
2022-12-31T15:55:22.039Z,103.40
2022-12-31T15:58:29.405Z,83.47
2022-12-31T16:01:36.463Z,64.03
2022-12-31T16:04:44.639Z,48.33
2022-12-31T16:07:48.791Z,66.07
2022-12-31T16:10:56.043Z,67.50
2022-12-31T16:14:00.702Z,67.27
2022-12-31T16:17:05.529Z,50.53
2022-12-31T16:20:25.397Z,50.23
2022-12-31T16:23:29.639Z,43.77
2022-12-31T16:26:44.027Z,47.17
2022-12-31T16:29:55.801Z,52.03
2022-12-31T16:33:02.374Z,57.37
2022-12-31T16:36:06.655Z,47.17
2022-12-31T16:39:31.974Z,51.80
2022-12-31T16:42:44.486Z,77.13
2022-12-31T16:45:48.768Z,74.73
2022-12-31T16:48:57.126Z,127.33
2022-12-31T16:52:04.945Z,169.93
2022-12-31T16:55:10.399Z,181.07
2022-12-31T16:58:23.410Z,165.33
2022-12-31T17:01:31.832Z,127.77
2022-12-31T17:04:37.750Z,115.30
2022-12-31T17:07:45.364Z,112.07
2022-12-31T17:10:49.195Z,113.50
2022-12-31T17:13:59.245Z,161.47
2022-12-31T17:17:05.507Z,121.27
2022-12-31T17:20:10.759Z,113.57
2022-12-31T17:23:24.556Z,107.90
2022-12-31T17:26:29.910Z,103.87
2022-12-31T17:29:35.809Z,100.87
2022-12-31T17:32:40.200Z,107.83
2022-12-31T17:35:46.115Z,121.80
2022-12-31T17:38:50.021Z,96.07
2022-12-31T17:41:57.316Z,100.07
2022-12-31T17:45:05.302Z,98.03
2022-12-31T17:48:12.251Z,98.30
2022-12-31T17:51:16.016Z,121.93
2022-12-31T17:54:27.907Z,110.53
2022-12-31T17:57:31.788Z,131.33
2022-12-31T18:00:38.865Z,106.73
2022-12-31T18:03:42.780Z,103.43
2022-12-31T18:06:47.086Z,100.90
2022-12-31T18:09:51.005Z,96.63
2022-12-31T18:12:55.229Z,92.30
2022-12-31T18:16:00.645Z,91.93
2022-12-31T18:19:04.489Z,81.93
2022-12-31T18:22:08.437Z,75.63
2022-12-31T18:25:15.597Z,78.00
2022-12-31T18:28:19.416Z,65.63
2022-12-31T18:31:27.633Z,77.60
2022-12-31T18:34:31.538Z,74.83
2022-12-31T18:37:36.869Z,69.20
2022-12-31T18:40:46.869Z,76.00
2022-12-31T18:43:52.101Z,73.63
2022-12-31T18:46:57.475Z,75.60
2022-12-31T18:50:01.385Z,76.67
2022-12-31T18:53:05.581Z,74.07
2022-12-31T18:56:14.122Z,69.70
2022-12-31T18:59:17.934Z,76.17
2022-12-31T19:02:23.292Z,73.97
2022-12-31T19:05:30.706Z,72.13
2022-12-31T19:08:34.440Z,74.83
2022-12-31T19:11:38.366Z,80.57
2022-12-31T19:14:42.215Z,77.33
2022-12-31T19:17:47.531Z,76.70
2022-12-31T19:20:53.119Z,77.90
2022-12-31T19:23:56.948Z,73.83
2022-12-31T19:27:02.908Z,75.17
2022-12-31T19:30:13.417Z,85.47
2022-12-31T19:33:18.850Z,81.27
2022-12-31T19:36:22.657Z,79.07
2022-12-31T19:39:26.470Z,76.60
2022-12-31T19:42:30.375Z,74.97
2022-12-31T19:45:34.629Z,76.83
2022-12-31T19:48:40.087Z,77.80
2022-12-31T19:51:44.569Z,75.87
2022-12-31T19:54:48.483Z,74.27
2022-12-31T19:57:52.774Z,67.50
2022-12-31T20:01:02.834Z,58.27
2022-12-31T20:04:08.896Z,55.67
2022-12-31T20:07:12.782Z,52.07
2022-12-31T20:10:16.648Z,51.47
2022-12-31T20:13:20.421Z,49.70
2022-12-31T20:16:27.055Z,49.30
2022-12-31T20:19:32.461Z,49.10
2022-12-31T20:22:36.315Z,50.07
2022-12-31T20:25:40.118Z,48.33
2022-12-31T20:28:43.988Z,55.17
2022-12-31T20:31:47.920Z,53.23
2022-12-31T20:34:53.415Z,53.10
2022-12-31T20:37:57.698Z,46.93
2022-12-31T20:41:05.603Z,45.93
2022-12-31T20:44:09.539Z,45.80
2022-12-31T20:47:13.557Z,45.90
2022-12-31T20:50:19.035Z,48.67
2022-12-31T20:53:22.990Z,50.80
2022-12-31T20:56:28.773Z,54.97
2022-12-31T20:59:33.195Z,57.67
2022-12-31T21:02:42.639Z,56.13
2022-12-31T21:05:53.097Z,52.23
2022-12-31T21:08:57.969Z,53.47
2022-12-31T21:12:19.255Z,52.83
2022-12-31T21:15:23.281Z,54.30
2022-12-31T21:18:27.229Z,56.43
2022-12-31T21:21:32.801Z,58.53
2022-12-31T21:24:36.593Z,59.10
2022-12-31T21:27:40.656Z,56.33
2022-12-31T21:30:44.506Z,62.83
2022-12-31T21:33:48.873Z,54.07
2022-12-31T21:36:54.181Z,59.13
2022-12-31T21:39:58.134Z,66.97
2022-12-31T21:43:02.045Z,55.60
2022-12-31T21:46:07.765Z,58.07
2022-12-31T21:49:11.759Z,45.47
2022-12-31T21:52:30.855Z,49.17
2022-12-31T21:55:51.964Z,54.00
2022-12-31T21:59:15.208Z,54.10
2022-12-31T22:02:36.301Z,98.83
2022-12-31T22:05:46.431Z,96.57
2022-12-31T22:08:53.231Z,124.27
2022-12-31T22:11:57.061Z,135.30
2022-12-31T22:15:14.914Z,92.43
2022-12-31T22:18:20.221Z,78.63
2022-12-31T22:21:26.878Z,78.10
2022-12-31T22:24:32.112Z,85.80
2022-12-31T22:27:36.050Z,89.67
2022-12-31T22:30:39.963Z,162.40
2022-12-31T22:33:43.933Z,143.23
2022-12-31T22:36:47.879Z,139.07
2022-12-31T22:39:53.199Z,139.77
2022-12-31T22:42:57.370Z,123.57
2022-12-31T22:46:06.680Z,107.53
2022-12-31T22:49:12.048Z,104.63
2022-12-31T22:52:15.831Z,105.97
2022-12-31T22:55:21.033Z,88.07
2022-12-31T22:58:25.487Z,72.80
2022-12-31T23:01:29.133Z,98.17
2022-12-31T23:04:33.203Z,101.37
2022-12-31T23:07:37.004Z,107.10
2022-12-31T23:10:59.685Z,103.87
2022-12-31T23:14:21.717Z,107.27
2022-12-31T23:17:44.889Z,101.83
2022-12-31T23:21:06.129Z,103.40
2022-12-31T23:24:18.078Z,85.97
2022-12-31T23:27:25.616Z,85.57
2022-12-31T23:30:29.667Z,88.60
2022-12-31T23:33:33.470Z,84.57
2022-12-31T23:36:37.227Z,82.97
2022-12-31T23:39:41.180Z,78.60
2022-12-31T23:42:46.471Z,77.10
2022-12-31T23:45:50.884Z,73.33
2022-12-31T23:48:54.893Z,75.80
2022-12-31T23:51:58.693Z,75.87
2022-12-31T23:55:03.949Z,77.83
2022-12-31T23:58:09.136Z,76.13
